createdAt,value
2022-10-01T00:04:05.214Z,4.23
2022-10-01T00:19:05.377Z,4.00
2022-10-01T00:34:05.430Z,3.86
2022-10-01T00:49:05.528Z,3.61
2022-10-01T01:04:06.156Z,3.51
2022-10-01T01:19:07.312Z,3.61
2022-10-01T01:34:07.386Z,3.54
2022-10-01T01:49:07.515Z,3.57
2022-10-01T02:04:07.600Z,3.45
2022-10-01T02:19:07.788Z,3.47
2022-10-01T02:34:12.445Z,3.69
2022-10-01T02:49:12.948Z,3.91
2022-10-01T03:04:13.030Z,4.29
2022-10-01T03:19:13.186Z,5.12
2022-10-01T03:34:13.299Z,6.22
2022-10-01T03:49:13.369Z,6.85
2022-10-01T04:04:13.469Z,7.15
2022-10-01T04:19:13.617Z,7.16
2022-10-01T04:34:13.722Z,7.21
2022-10-01T04:49:13.837Z,7.55
2022-10-01T05:04:13.955Z,7.79
2022-10-01T05:19:14.098Z,7.97
2022-10-01T05:34:14.214Z,8.18
2022-10-01T05:49:14.303Z,8.18
2022-10-01T06:04:14.398Z,8.56
2022-10-01T06:19:14.699Z,9.05
2022-10-01T06:34:15.146Z,9.32
2022-10-01T06:49:15.239Z,9.36
2022-10-01T07:04:15.330Z,9.65
2022-10-01T07:19:15.432Z,9.72
2022-10-01T07:34:15.495Z,10.02
2022-10-01T07:49:15.617Z,10.55
2022-10-01T08:04:16.262Z,11.04
2022-10-01T08:19:16.455Z,11.49
2022-10-01T08:34:16.500Z,12.05
2022-10-01T08:49:16.637Z,12.59
2022-10-01T09:04:16.766Z,12.75
2022-10-01T09:19:17.809Z,13.28
2022-10-01T09:34:17.904Z,13.17
2022-10-01T09:49:18.058Z,12.83
2022-10-01T10:04:20.215Z,12.46
2022-10-01T10:19:20.249Z,12.04
2022-10-01T10:34:20.419Z,11.80
2022-10-01T10:49:20.481Z,11.42
2022-10-01T11:04:20.569Z,11.27
2022-10-01T11:19:20.686Z,11.22
2022-10-01T11:34:20.830Z,11.39
2022-10-01T11:49:20.890Z,11.29
2022-10-01T12:04:20.986Z,11.33
2022-10-01T12:19:21.145Z,11.18
2022-10-01T12:34:21.298Z,11.19
2022-10-01T12:49:21.279Z,11.25
2022-10-01T13:04:22.025Z,11.33
2022-10-01T13:19:22.031Z,11.70
2022-10-01T13:34:22.140Z,11.78
2022-10-01T13:49:22.335Z,11.98
2022-10-01T14:04:22.346Z,12.14
2022-10-01T14:19:22.496Z,12.17
2022-10-01T14:34:23.700Z,12.23
2022-10-01T14:49:23.704Z,12.32
2022-10-01T15:04:23.920Z,12.47
2022-10-01T15:19:23.892Z,12.65
2022-10-01T15:34:24.052Z,12.85
2022-10-01T15:49:24.158Z,12.95
2022-10-01T16:04:24.231Z,12.77
2022-10-01T16:19:24.379Z,12.38
2022-10-01T16:34:24.415Z,12.04
2022-10-01T16:49:24.512Z,11.85
2022-10-01T17:04:25.589Z,11.72
2022-10-01T17:19:25.784Z,11.39
2022-10-01T17:34:25.915Z,11.49
2022-10-01T17:49:25.997Z,11.69
2022-10-01T18:04:26.656Z,11.83
2022-10-01T18:19:52.750Z,11.88
2022-10-01T18:34:35.498Z,12.02
2022-10-01T18:49:35.244Z,11.69
2022-10-01T19:04:35.387Z,11.61
2022-10-01T19:19:35.503Z,11.88
2022-10-01T19:34:35.584Z,11.85
2022-10-01T19:49:35.714Z,11.82
2022-10-01T20:04:36.352Z,11.96
2022-10-01T20:19:36.736Z,11.70
2022-10-01T20:34:38.490Z,11.47
2022-10-01T20:49:40.633Z,11.36
2022-10-01T21:04:40.237Z,11.09
2022-10-01T21:19:40.381Z,10.82
2022-10-01T21:34:40.670Z,10.79
2022-10-01T21:49:40.817Z,10.45
2022-10-01T22:04:41.091Z,10.34
2022-10-01T22:19:41.009Z,10.41
2022-10-01T22:34:41.161Z,10.27
2022-10-01T22:49:44.300Z,10.18
2022-10-01T23:04:44.426Z,10.22
2022-10-01T23:19:44.524Z,10.20
2022-10-01T23:34:46.027Z,10.22
2022-10-01T23:49:46.188Z,9.96
